createdAt,value
2023-05-23T00:00:29.025Z,85.00
2023-05-23T00:02:57.116Z,84.80
2023-05-23T00:05:27.171Z,84.70
2023-05-23T00:07:54.803Z,84.40
2023-05-23T00:10:23.041Z,84.70
2023-05-23T00:12:51.120Z,84.60
2023-05-23T00:15:19.023Z,84.70
2023-05-23T00:17:47.296Z,84.50
2023-05-23T00:20:15.188Z,85.10
2023-05-23T00:22:46.303Z,84.90
2023-05-23T00:25:14.439Z,84.50
2023-05-23T00:27:42.258Z,84.60
2023-05-23T00:30:11.587Z,85.20
2023-05-23T00:32:48.838Z,85.50
2023-05-23T00:35:17.467Z,85.40
2023-05-23T00:37:45.827Z,85.90
2023-05-23T00:40:15.955Z,85.80
2023-05-23T00:42:44.198Z,86.10
2023-05-23T00:45:13.210Z,85.90
2023-05-23T00:47:41.926Z,85.70
2023-05-23T00:50:16.118Z,86.00
2023-05-23T00:52:45.683Z,86.40
2023-05-23T00:55:13.917Z,85.70
2023-05-23T00:57:44.704Z,85.90
2023-05-23T01:00:13.743Z,86.00
2023-05-23T01:02:46.436Z,86.00
2023-05-23T01:05:18.527Z,86.20
2023-05-23T01:07:47.231Z,86.20
2023-05-23T01:10:18.010Z,85.90
2023-05-23T01:13:22.622Z,85.90
2023-05-23T01:16:17.381Z,86.10
2023-05-23T01:19:01.012Z,86.30
2023-05-23T01:21:30.054Z,86.70
2023-05-23T01:24:04.177Z,86.80
2023-05-23T01:26:51.077Z,86.90
2023-05-23T01:29:25.657Z,87.00
2023-05-23T01:31:55.108Z,87.30
2023-05-23T01:34:24.391Z,87.50
2023-05-23T01:36:56.756Z,87.50
2023-05-23T01:39:25.001Z,87.60
2023-05-23T01:41:54.341Z,88.20
2023-05-23T01:44:23.131Z,88.10
2023-05-23T01:46:51.079Z,88.10
2023-05-23T01:49:20.121Z,88.40
2023-05-23T01:52:10.804Z,88.80
2023-05-23T01:54:39.611Z,89.00
2023-05-23T01:57:07.559Z,88.90
2023-05-23T01:59:38.159Z,89.40
2023-05-23T02:02:07.629Z,89.50
2023-05-23T02:04:35.618Z,89.90
2023-05-23T02:07:02.867Z,90.00
2023-05-23T02:09:31.093Z,90.40
2023-05-23T02:11:59.837Z,90.80
2023-05-23T02:14:28.735Z,91.10
2023-05-23T02:16:59.231Z,91.50
2023-05-23T02:19:27.830Z,91.20
2023-05-23T02:21:55.456Z,91.20
2023-05-23T02:24:23.295Z,90.80
2023-05-23T02:26:52.530Z,90.80
2023-05-23T02:29:20.189Z,90.70
2023-05-23T02:31:47.939Z,90.60
2023-05-23T02:34:15.391Z,90.70
2023-05-23T02:36:43.577Z,91.00
2023-05-23T02:39:11.403Z,91.00
2023-05-23T02:41:39.098Z,91.20
2023-05-23T02:44:09.943Z,91.40
2023-05-23T02:46:39.152Z,91.50
2023-05-23T02:49:07.010Z,91.60
2023-05-23T02:51:35.695Z,91.50
2023-05-23T02:54:03.572Z,91.50
2023-05-23T02:56:31.640Z,91.60
2023-05-23T02:58:59.556Z,91.50
2023-05-23T03:01:28.027Z,91.70
2023-05-23T03:03:56.183Z,91.90
2023-05-23T03:06:23.779Z,91.50
2023-05-23T03:08:52.035Z,91.40
2023-05-23T03:11:22.867Z,91.40
2023-05-23T03:13:50.513Z,91.40
2023-05-23T03:16:18.074Z,91.50
2023-05-23T03:18:46.328Z,91.50
2023-05-23T03:21:13.814Z,91.70
2023-05-23T03:23:41.799Z,91.80
2023-05-23T03:26:09.522Z,91.80
2023-05-23T03:28:37.021Z,92.20
2023-05-23T03:31:05.762Z,92.10
2023-05-23T03:33:33.984Z,92.20
2023-05-23T03:36:01.868Z,92.40
2023-05-23T03:38:29.334Z,92.50
2023-05-23T03:41:02.762Z,92.30
2023-05-23T03:43:30.567Z,92.40
2023-05-23T03:45:59.532Z,92.30
2023-05-23T03:48:27.204Z,92.50
2023-05-23T03:50:54.741Z,92.50
2023-05-23T03:53:23.145Z,92.50
2023-05-23T03:55:50.997Z,92.60
2023-05-23T03:58:19.199Z,92.80
2023-05-23T04:00:48.080Z,92.90
2023-05-23T04:03:17.882Z,92.80
2023-05-23T04:05:46.287Z,93.00
2023-05-23T04:08:14.245Z,93.60
2023-05-23T04:10:42.256Z,93.20
2023-05-23T04:13:13.214Z,93.40
2023-05-23T04:15:44.329Z,93.60
2023-05-23T04:18:13.219Z,93.50
2023-05-23T04:20:40.761Z,93.70
2023-05-23T04:23:08.749Z,94.20
2023-05-23T04:25:38.127Z,94.80
2023-05-23T04:28:08.312Z,94.20
2023-05-23T04:30:35.806Z,94.30
2023-05-23T04:33:05.361Z,94.10
2023-05-23T04:35:34.620Z,94.90
2023-05-23T04:38:04.428Z,96.10
2023-05-23T04:40:33.220Z,95.90
2023-05-23T04:43:05.753Z,96.60
2023-05-23T04:45:42.715Z,96.40
2023-05-23T04:48:19.725Z,96.40
2023-05-23T04:50:48.084Z,96.60
2023-05-23T04:53:15.752Z,97.30
2023-05-23T04:55:44.272Z,96.20
2023-05-23T04:58:14.184Z,96.10
2023-05-23T05:00:44.635Z,96.10
2023-05-23T05:03:14.886Z,96.30
2023-05-23T05:05:44.472Z,96.40
2023-05-23T05:08:12.272Z,96.40
2023-05-23T05:10:41.495Z,96.50
2023-05-23T05:13:20.234Z,96.70
2023-05-23T05:15:49.747Z,97.00
2023-05-23T05:18:18.472Z,97.40
2023-05-23T05:20:46.496Z,97.50
2023-05-23T05:23:15.446Z,97.80
2023-05-23T05:25:43.462Z,97.80
2023-05-23T05:28:11.470Z,97.80
2023-05-23T05:30:41.325Z,97.90
2023-05-23T05:33:10.944Z,98.10
2023-05-23T05:35:41.361Z,98.20
2023-05-23T05:38:11.233Z,98.60
2023-05-23T05:40:40.556Z,98.90
2023-05-23T05:43:10.479Z,99.60
2023-05-23T05:45:38.305Z,99.80
2023-05-23T05:48:06.650Z,99.80
2023-05-23T05:50:34.509Z,99.90
2023-05-23T05:53:03.879Z,99.90
2023-05-23T05:55:34.124Z,99.90
2023-05-23T05:58:02.069Z,99.90
2023-05-23T06:00:31.957Z,99.90
2023-05-23T06:02:59.414Z,99.90
2023-05-23T06:05:31.758Z,99.90
2023-05-23T06:07:59.771Z,99.90
2023-05-23T06:10:28.046Z,99.90
2023-05-23T06:12:57.355Z,99.90
2023-05-23T06:15:25.287Z,99.90
2023-05-23T06:17:53.823Z,99.90
2023-05-23T06:20:22.179Z,99.90
2023-05-23T06:22:50.481Z,99.90
2023-05-23T06:25:18.765Z,99.90
2023-05-23T06:27:47.894Z,99.90
2023-05-23T06:30:17.945Z,99.90
2023-05-23T06:32:46.268Z,99.90
2023-05-23T06:35:14.938Z,99.90
2023-05-23T06:37:44.653Z,99.90
2023-05-23T06:40:14.883Z,99.90
2023-05-23T06:42:42.625Z,99.90
2023-05-23T06:45:14.262Z,99.90
2023-05-23T06:47:43.548Z,99.90
2023-05-23T06:53:15.322Z,99.90
2023-05-23T06:55:44.671Z,99.90
2023-05-23T06:58:13.604Z,99.90
2023-05-23T07:00:41.336Z,99.90
2023-05-23T07:03:13.742Z,99.80
2023-05-23T07:05:41.697Z,99.90
2023-05-23T07:08:13.464Z,99.70
2023-05-23T07:10:44.361Z,99.40
2023-05-23T07:13:33.651Z,99.50
2023-05-23T07:16:01.640Z,99.40
2023-05-23T07:18:29.420Z,99.90
2023-05-23T07:20:58.052Z,99.70
2023-05-23T07:23:26.746Z,99.90
2023-05-23T07:28:25.918Z,99.90
2023-05-23T07:30:58.703Z,99.90
2023-05-23T07:33:26.384Z,99.90
2023-05-23T07:35:56.400Z,99.90
2023-05-23T07:38:24.753Z,99.90
2023-05-23T07:40:59.138Z,99.90
2023-05-23T07:43:22.003Z,99.90
2023-05-23T07:45:49.742Z,99.90
2023-05-23T07:48:17.672Z,99.90
2023-05-23T07:50:45.564Z,99.90
2023-05-23T07:53:13.972Z,99.90
2023-05-23T07:55:42.016Z,99.90
2023-05-23T07:58:09.842Z,99.90
2023-05-23T08:00:39.364Z,99.90
2023-05-23T08:03:09.182Z,99.90
2023-05-23T08:05:39.098Z,98.50
2023-05-23T08:08:07.395Z,98.10
2023-05-23T08:10:35.738Z,98.60
2023-05-23T08:13:06.904Z,98.20
2023-05-23T08:15:36.341Z,97.90
2023-05-23T08:18:06.637Z,96.90
2023-05-23T08:20:34.300Z,96.10
2023-05-23T08:23:03.252Z,95.70
2023-05-23T08:25:32.673Z,95.10
2023-05-23T08:28:02.265Z,95.00
2023-05-23T08:30:47.103Z,94.50
2023-05-23T08:33:15.513Z,94.50
2023-05-23T08:35:45.481Z,95.10
2023-05-23T08:38:13.788Z,95.50
2023-05-23T08:40:47.197Z,96.20
2023-05-23T08:43:15.171Z,96.00
2023-05-23T08:45:44.274Z,95.90
2023-05-23T08:48:17.046Z,95.80
2023-05-23T08:50:47.892Z,96.70
2023-05-23T08:53:20.751Z,96.30
2023-05-23T08:55:56.002Z,96.90
2023-05-23T08:58:26.240Z,97.10
2023-05-23T09:00:55.803Z,97.40
2023-05-23T09:03:24.004Z,97.30
2023-05-23T09:05:57.615Z,97.80
2023-05-23T09:08:25.859Z,97.30
2023-05-23T09:10:56.293Z,97.50
2023-05-23T09:13:24.245Z,98.00
2023-05-23T09:16:01.767Z,98.20
2023-05-23T09:18:37.977Z,97.50
2023-05-23T09:21:08.163Z,96.50
2023-05-23T09:23:39.027Z,96.50
2023-05-23T09:26:09.785Z,96.50
2023-05-23T09:28:39.387Z,97.60
2023-05-23T09:31:11.849Z,97.20
2023-05-23T09:33:42.475Z,94.90
2023-05-23T09:36:10.807Z,94.00
2023-05-23T09:38:39.631Z,94.80
2023-05-23T09:41:08.553Z,92.40
2023-05-23T09:43:36.619Z,92.90
2023-05-23T09:46:11.893Z,92.80
2023-05-23T09:48:40.678Z,92.60
2023-05-23T09:51:10.408Z,91.80
2023-05-23T09:53:38.319Z,92.10
2023-05-23T09:56:07.116Z,92.50
2023-05-23T09:58:40.129Z,92.60
2023-05-23T10:01:11.020Z,91.90
2023-05-23T10:03:43.136Z,92.00
2023-05-23T10:06:27.232Z,92.70
2023-05-23T10:09:04.026Z,92.70
2023-05-23T10:11:38.895Z,92.80
2023-05-23T10:14:10.320Z,92.40
2023-05-23T10:16:44.704Z,93.10
2023-05-23T10:19:16.170Z,91.50
2023-05-23T10:21:46.709Z,92.00
2023-05-23T10:24:15.331Z,92.00
2023-05-23T10:26:45.696Z,90.00
2023-05-23T10:29:13.440Z,90.60
2023-05-23T10:31:41.992Z,84.20
2023-05-23T10:34:19.838Z,85.00
2023-05-23T10:36:54.181Z,89.80
2023-05-23T10:39:59.690Z,90.50
2023-05-23T10:42:31.187Z,87.50
2023-05-23T10:45:21.567Z,84.50
2023-05-23T10:47:51.353Z,84.80
2023-05-23T10:50:34.136Z,83.60
2023-05-23T10:53:03.878Z,84.90
2023-05-23T10:55:36.097Z,87.20
2023-05-23T10:58:22.990Z,88.20
2023-05-23T11:01:04.772Z,87.40
2023-05-23T11:03:41.391Z,85.40
2023-05-23T11:06:15.609Z,85.30
2023-05-23T11:08:48.769Z,85.40
2023-05-23T11:11:16.675Z,85.70
2023-05-23T11:14:03.010Z,84.80
2023-05-23T11:16:43.349Z,85.40
2023-05-23T11:19:23.282Z,82.00
2023-05-23T11:21:54.111Z,83.00
2023-05-23T11:24:22.158Z,84.00
2023-05-23T11:27:04.332Z,83.90
2023-05-23T11:29:32.616Z,85.60
2023-05-23T11:32:04.417Z,84.40
2023-05-23T11:34:32.846Z,86.30
2023-05-23T11:37:01.226Z,82.40
2023-05-23T11:39:30.081Z,81.80
2023-05-23T11:42:02.403Z,82.40
2023-05-23T11:44:30.547Z,82.20
2023-05-23T11:47:05.574Z,84.30
2023-05-23T11:49:36.104Z,80.00
2023-05-23T11:52:05.399Z,81.70
2023-05-23T11:54:33.857Z,82.10
2023-05-23T11:57:04.034Z,80.00
2023-05-23T11:59:31.573Z,82.70
2023-05-23T12:02:00.116Z,77.30
2023-05-23T12:04:27.782Z,75.30
2023-05-23T12:06:56.194Z,77.90
2023-05-23T12:09:25.143Z,76.20
2023-05-23T12:11:53.818Z,79.20
2023-05-23T12:14:22.105Z,78.10
2023-05-23T12:16:49.715Z,77.80
2023-05-23T12:19:18.439Z,78.40
2023-05-23T12:21:48.320Z,79.10
2023-05-23T12:24:21.423Z,78.90
2023-05-23T12:26:58.067Z,75.00
2023-05-23T12:29:35.273Z,75.60
2023-05-23T12:32:05.220Z,74.50
2023-05-23T12:34:33.285Z,73.60
2023-05-23T12:37:19.060Z,73.50
2023-05-23T12:39:37.468Z,72.50
2023-05-23T12:42:09.834Z,71.70
2023-05-23T12:44:37.669Z,73.40
2023-05-23T12:47:06.223Z,70.40
2023-05-23T12:49:34.807Z,70.30
2023-05-23T12:52:03.195Z,69.60
2023-05-23T12:54:31.036Z,69.40
2023-05-23T12:56:59.115Z,70.50
2023-05-23T12:59:26.701Z,66.10
2023-05-23T13:01:55.595Z,66.10
2023-05-23T13:04:23.974Z,66.50
2023-05-23T13:06:51.564Z,67.50
2023-05-23T13:09:20.249Z,67.00
2023-05-23T13:11:48.311Z,66.20
2023-05-23T13:14:16.987Z,66.30
2023-05-23T13:16:45.941Z,67.00
2023-05-23T13:19:13.862Z,68.90
2023-05-23T13:21:43.215Z,66.60
2023-05-23T13:24:11.156Z,66.20
2023-05-23T13:26:39.379Z,66.80
2023-05-23T13:29:07.530Z,66.50
2023-05-23T13:31:35.448Z,65.10
2023-05-23T13:34:03.676Z,67.00
2023-05-23T13:36:31.964Z,68.60
2023-05-23T13:39:01.659Z,69.00
2023-05-23T13:41:32.990Z,68.50
2023-05-23T13:44:00.851Z,67.20
2023-05-23T13:46:28.499Z,67.20
2023-05-23T13:48:56.200Z,66.60
2023-05-23T13:51:24.390Z,67.30
2023-05-23T13:53:52.735Z,66.00
2023-05-23T13:56:20.984Z,64.30
2023-05-23T13:58:48.486Z,65.10
2023-05-23T14:01:16.391Z,64.40
2023-05-23T14:03:44.117Z,63.30
2023-05-23T14:06:13.105Z,61.50
2023-05-23T14:08:40.892Z,63.20
2023-05-23T14:11:08.749Z,65.30
2023-05-23T14:13:36.748Z,62.50
2023-05-23T14:16:05.063Z,59.90
2023-05-23T14:18:33.421Z,59.50
2023-05-23T14:21:01.368Z,58.70
2023-05-23T14:23:30.369Z,60.00
2023-05-23T14:25:58.529Z,61.80
2023-05-23T14:28:26.470Z,59.50
2023-05-23T14:30:55.826Z,55.70
2023-05-23T14:33:23.578Z,56.50
2023-05-23T14:35:51.528Z,57.00
2023-05-23T14:38:20.661Z,58.20
2023-05-23T14:40:49.108Z,56.90
2023-05-23T14:43:17.009Z,56.90
2023-05-23T14:45:45.286Z,56.50
2023-05-23T14:48:13.226Z,54.70
2023-05-23T14:50:41.593Z,55.80
2023-05-23T14:53:09.714Z,54.90
2023-05-23T14:55:37.440Z,54.50
2023-05-23T14:58:06.713Z,55.60
2023-05-23T15:00:34.837Z,53.20
2023-05-23T15:03:02.970Z,54.10
2023-05-23T15:05:30.471Z,53.50
2023-05-23T15:07:58.196Z,54.80
2023-05-23T15:10:27.129Z,55.20
2023-05-23T15:12:55.439Z,53.40
2023-05-23T15:15:24.187Z,51.10
2023-05-23T15:17:52.032Z,50.20
2023-05-23T15:20:19.746Z,52.10
2023-05-23T15:22:47.430Z,52.40
2023-05-23T15:25:15.580Z,53.60
2023-05-23T15:27:47.922Z,53.60
2023-05-23T15:30:16.005Z,53.90
2023-05-23T15:32:44.458Z,51.90
2023-05-23T15:35:12.324Z,52.00
2023-05-23T15:37:41.539Z,51.20
2023-05-23T15:40:10.580Z,52.70
2023-05-23T15:42:38.385Z,50.30
2023-05-23T15:45:07.300Z,52.60
2023-05-23T15:47:35.268Z,52.00
2023-05-23T15:50:02.997Z,51.10
2023-05-23T15:52:30.645Z,52.50
2023-05-23T15:54:59.073Z,49.60
2023-05-23T15:57:26.598Z,51.70
2023-05-23T15:59:55.117Z,49.40
2023-05-23T16:02:22.768Z,50.80
2023-05-23T16:04:50.586Z,49.10
2023-05-23T16:07:18.581Z,48.00
2023-05-23T16:09:47.289Z,48.90
2023-05-23T16:12:15.339Z,48.50
2023-05-23T16:14:42.872Z,47.40
2023-05-23T16:17:11.307Z,46.30
2023-05-23T16:19:40.896Z,47.10
2023-05-23T16:22:08.527Z,45.40
2023-05-23T16:24:36.677Z,45.00
2023-05-23T16:27:05.636Z,44.00
2023-05-23T16:29:33.922Z,45.20
2023-05-23T16:32:02.287Z,44.80
2023-05-23T16:34:30.256Z,43.60
2023-05-23T16:36:58.312Z,43.90
2023-05-23T16:39:27.019Z,45.10
2023-05-23T16:41:54.798Z,45.50
2023-05-23T16:44:22.569Z,44.90
2023-05-23T16:46:50.123Z,44.60
2023-05-23T16:49:17.810Z,46.10
2023-05-23T16:51:48.671Z,44.40
2023-05-23T16:54:16.901Z,44.40
2023-05-23T16:56:48.136Z,45.00
2023-05-23T16:59:16.215Z,46.00
2023-05-23T17:01:44.390Z,45.70
2023-05-23T17:04:12.154Z,44.90
2023-05-23T17:06:39.778Z,45.90
2023-05-23T17:09:07.505Z,46.10
2023-05-23T17:11:35.544Z,46.60
2023-05-23T17:14:03.796Z,46.90
2023-05-23T17:16:33.776Z,47.90
2023-05-23T17:19:02.319Z,50.30
2023-05-23T17:21:30.318Z,49.20
2023-05-23T17:23:58.824Z,49.60
2023-05-23T17:26:27.856Z,53.60
2023-05-23T17:28:55.476Z,55.80
2023-05-23T17:31:23.497Z,56.70
2023-05-23T17:33:50.992Z,57.70
2023-05-23T17:36:18.610Z,58.30
2023-05-23T17:38:47.896Z,58.20
2023-05-23T17:41:16.435Z,58.50
2023-05-23T17:43:44.425Z,59.10
2023-05-23T17:46:12.574Z,59.70
2023-05-23T17:48:47.830Z,61.80
2023-05-23T17:51:10.161Z,64.10
2023-05-23T17:53:41.512Z,64.60
2023-05-23T17:56:12.813Z,65.20
2023-05-23T17:58:43.266Z,65.80
2023-05-23T18:01:11.900Z,66.70
2023-05-23T18:03:39.906Z,67.90
2023-05-23T18:06:08.787Z,68.80
2023-05-23T18:08:36.748Z,69.60
2023-05-23T18:11:06.393Z,70.60
2023-05-23T18:13:48.350Z,72.40
2023-05-23T18:16:20.080Z,72.90
2023-05-23T18:18:47.568Z,73.70
2023-05-23T18:21:16.815Z,74.80
2023-05-23T18:23:45.244Z,75.30
2023-05-23T18:26:13.053Z,75.80
2023-05-23T18:28:41.361Z,76.60
2023-05-23T18:31:09.775Z,77.50
2023-05-23T18:33:37.398Z,78.10
2023-05-23T18:36:06.018Z,78.20
2023-05-23T18:38:34.407Z,79.40
2023-05-23T18:41:02.244Z,80.30
2023-05-23T18:43:29.992Z,81.70
2023-05-23T18:45:58.443Z,81.30
2023-05-23T18:48:27.951Z,81.90
2023-05-23T18:50:56.020Z,81.60
2023-05-23T18:53:24.012Z,81.80
2023-05-23T18:55:51.958Z,82.00
2023-05-23T18:58:20.100Z,82.40
2023-05-23T19:00:48.053Z,83.20
2023-05-23T19:03:17.532Z,83.60
2023-05-23T19:05:46.061Z,83.40
2023-05-23T19:08:13.883Z,83.50
2023-05-23T19:10:42.174Z,83.70
2023-05-23T19:13:10.134Z,83.90
2023-05-23T19:15:38.565Z,84.30
2023-05-23T19:18:07.950Z,84.40
2023-05-23T19:20:38.358Z,84.40
2023-05-23T19:23:07.529Z,84.30
2023-05-23T19:25:36.244Z,84.50
2023-05-23T19:28:05.148Z,84.70
2023-05-23T19:30:33.130Z,84.80
2023-05-23T19:33:01.854Z,85.00
2023-05-23T19:35:29.425Z,85.10
2023-05-23T19:37:58.393Z,85.20
2023-05-23T19:40:27.581Z,85.40
2023-05-23T19:42:57.502Z,85.50
2023-05-23T19:45:25.902Z,85.10
2023-05-23T19:47:54.371Z,85.50
2023-05-23T19:50:24.355Z,85.50
2023-05-23T19:52:53.040Z,85.60
2023-05-23T19:55:21.747Z,85.80
2023-05-23T19:57:50.188Z,85.70
2023-05-23T20:00:18.381Z,85.80
2023-05-23T20:02:47.857Z,86.50
2023-05-23T20:05:16.553Z,86.40
2023-05-23T20:07:47.178Z,86.30
2023-05-23T20:10:16.861Z,86.60
2023-05-23T20:12:44.962Z,86.80
2023-05-23T20:15:15.891Z,86.90
2023-05-23T20:17:51.147Z,87.10
2023-05-23T20:20:19.732Z,87.20
2023-05-23T20:22:47.958Z,87.80
2023-05-23T20:25:23.490Z,87.20
2023-05-23T20:27:55.874Z,87.80
2023-05-23T20:30:29.045Z,87.90
2023-05-23T20:32:58.750Z,88.10
2023-05-23T20:35:28.144Z,88.20
2023-05-23T20:37:55.824Z,88.60
2023-05-23T20:40:27.141Z,88.70
2023-05-23T20:42:56.132Z,88.70
2023-05-23T20:45:24.012Z,88.70
2023-05-23T20:47:54.062Z,88.90
2023-05-23T20:50:22.660Z,90.10
2023-05-23T20:52:51.285Z,89.40
2023-05-23T20:55:19.194Z,89.60
2023-05-23T20:57:54.564Z,89.20
2023-05-23T21:00:22.903Z,88.30
2023-05-23T21:02:51.154Z,88.10
2023-05-23T21:05:20.624Z,88.00
2023-05-23T21:07:48.460Z,88.30
2023-05-23T21:10:16.396Z,88.30
2023-05-23T21:12:46.110Z,87.80
2023-05-23T21:15:13.962Z,87.60
2023-05-23T21:17:41.967Z,87.40
2023-05-23T21:20:11.002Z,86.90
2023-05-23T21:22:38.839Z,87.00
2023-05-23T21:25:06.926Z,87.10
2023-05-23T21:27:35.053Z,86.30
2023-05-23T21:30:03.634Z,86.20
2023-05-23T21:32:32.951Z,86.40
2023-05-23T21:35:00.526Z,86.50
2023-05-23T21:37:28.414Z,86.30
2023-05-23T21:39:56.014Z,88.40
2023-05-23T21:42:24.966Z,89.10
2023-05-23T21:44:52.822Z,88.80
2023-05-23T21:47:24.760Z,88.90
2023-05-23T21:49:52.240Z,89.10
2023-05-23T21:52:20.426Z,88.70
2023-05-23T21:54:49.082Z,89.00
2023-05-23T21:57:16.930Z,88.70
2023-05-23T21:59:45.006Z,89.00
2023-05-23T22:02:12.668Z,89.30
2023-05-23T22:04:40.416Z,88.60
2023-05-23T22:07:08.282Z,89.20
2023-05-23T22:09:36.324Z,88.90
2023-05-23T22:12:04.899Z,88.60
2023-05-23T22:14:32.752Z,90.00
2023-05-23T22:17:02.673Z,87.90
2023-05-23T22:19:30.629Z,88.80
2023-05-23T22:21:58.692Z,89.30
2023-05-23T22:24:26.596Z,89.30
2023-05-23T22:26:54.354Z,89.30
2023-05-23T22:29:22.160Z,89.40
2023-05-23T22:31:53.259Z,89.30
2023-05-23T22:34:20.931Z,88.90
2023-05-23T22:36:49.131Z,88.90
2023-05-23T22:39:20.366Z,88.70
2023-05-23T22:41:48.082Z,89.10
2023-05-23T22:44:16.650Z,89.80
2023-05-23T22:46:44.297Z,90.00
2023-05-23T22:49:11.869Z,90.10
2023-05-23T22:51:40.635Z,90.60
2023-05-23T22:54:08.491Z,90.40
2023-05-23T22:56:36.103Z,90.40
2023-05-23T22:59:07.402Z,90.60
2023-05-23T23:01:56.000Z,90.50
2023-05-23T23:04:25.710Z,91.00
2023-05-23T23:06:54.017Z,90.90
2023-05-23T23:09:21.868Z,90.90
2023-05-23T23:11:49.707Z,90.90
2023-05-23T23:14:17.678Z,90.90
2023-05-23T23:16:46.540Z,90.90
2023-05-23T23:19:15.005Z,91.20
2023-05-23T23:21:43.171Z,91.50
2023-05-23T23:24:11.512Z,91.70
2023-05-23T23:26:40.547Z,92.20
2023-05-23T23:29:09.431Z,91.80
2023-05-23T23:31:37.279Z,91.70
2023-05-23T23:34:05.008Z,91.80
2023-05-23T23:36:33.819Z,91.70
2023-05-23T23:39:02.362Z,91.50
2023-05-23T23:41:30.457Z,91.60
2023-05-23T23:43:59.035Z,91.60
2023-05-23T23:46:28.782Z,91.70
2023-05-23T23:48:56.497Z,92.00
2023-05-23T23:51:24.733Z,91.80
2023-05-23T23:53:54.008Z,91.70
2023-05-23T23:56:23.229Z,91.70
2023-05-23T23:58:52.887Z,91.80
